To NAV CANADA Home Page Login to a new session Search on AWWS site Feedback and Comments Disclaimer Vers la page française équivalente Tips FAQ What's new on the site To the Forecasts and Observations / NOTAM section To "File a Flight Plan" website Publications and other links Update of the User's profile FIC Telephone Numbers My Weather Data Folder Route Weather Data Regional Weather Data Local Weather Data To the Forecasts and Observations / NOTAM section
Request Generated 04/16/2014 at 10:09:37 UTC . Weather information available at that time is displayed.

METAR/TAF

MARYS HARBOUR/NL    

METAR CYMH 161000Z AUTO 21027G39KT 9SM OVC012 10/08 A2961 RMK MAX WND
21028KT AT 0951Z SLP027=
SPECI CYMH 160931Z AUTO 21027G38KT 9SM BKN016 BKN070 10/08 A2961 RMK
MAX WND 21027KT AT 0931Z SLP028=
METAR CYMH 160900Z AUTO 21020G31KT 9SM FEW035 SCT120 09/07 A2962 RMK
MAX WND 21024KT AT 0801Z SLP030=
METAR CYMH 160800Z AUTO 21025G35KT 9SM CLR 09/07 A2963 RMK MAX WND
22028KT AT 0704Z SLP034=

TAF AMD CYMH 160937Z 1609/1621 21025G35KT P6SM BKN015 OVC070 TEMPO
1609/1618 BKN025
FM161800 21025G35KT P6SM -RA OVC030 TEMPO 1618/1621 3SM -RA BR
OVC020
RMK FCST BASED ON AUTO OBS. NXT FCST BY 161400Z=
Your time UTC time
Weather data provided by Environment Canada and NAV CANADA